Decoded Metar for KUTS (HUNTSVILLE in TX, USA) (IATA:UTS) | Meteo·Mobile Aviation Weather
aviador You're here:

KUTS Decoded Metar

HUNTSVILLE in TX, USA
Report Time2018-10-24 05:53:00
UTC Time2018-10-24 06:02:36
Flight Rules vfr VFR
Wind070° at 04 kt
W.Decomp.*RWY 36: 1.8 kt HW 3.6 kt RCW
W.Rank070° ranks 16
Current wind is below 070° avg. (4.3)
Visibility9999 m
Phenomena:N/A
Clouds:Broken 100 Hf
Expected CloudBase > 1,600 ft AGL from Temp-Dew spread
Ceiling10,000 ft
Temp16°C (ISA +2)
Dew Point12°C (77% RH)
AAT15.2°C
QNH1020 hPa
Density Alt492 ft
Elevation341 ft
Report Wrong Elevation
Raw Report
METAR KUTS 240553Z AUTO 07004KT 10SM BKN100 16/12 A3012 RMK AO2 SLP197
T01610117 10172 20161 401830117 58006=

Extra information for KUTS:More info

Metar Taf Metar & Taf Last 4 Metars F.Rules Stats Wind Profile Meteogram Temp Stats Airport Information Weather charts Add Link Nearby VenuesMetar ALERT Operation Metar Decoded Social comments

AIRNAV info for KUTS